createdAt,value
2023-10-26T00:02:20.115Z,99042.38
2023-10-26T00:04:47.192Z,99031.00
2023-10-26T00:07:15.520Z,99030.59
2023-10-26T00:09:42.471Z,99014.94
2023-10-26T00:12:09.452Z,99013.50
2023-10-26T00:14:36.442Z,99019.00
2023-10-26T00:17:03.433Z,99020.69
2023-10-26T00:19:30.353Z,99020.44
2023-10-26T00:21:57.661Z,99027.34
2023-10-26T00:24:24.714Z,99022.66
2023-10-26T00:26:51.645Z,99023.25
2023-10-26T00:29:18.586Z,99009.25
2023-10-26T00:31:45.452Z,99007.38
2023-10-26T00:34:12.352Z,99009.81
2023-10-26T00:36:39.187Z,99002.09
2023-10-26T00:39:06.324Z,99000.72
2023-10-26T00:41:33.783Z,98997.47
2023-10-26T00:44:01.323Z,98992.19
2023-10-26T00:46:28.300Z,98995.66
2023-10-26T00:48:55.327Z,98996.03
2023-10-26T00:51:23.576Z,98989.94
2023-10-26T00:53:51.238Z,98996.25
2023-10-26T00:56:22.218Z,98990.53
2023-10-26T00:58:49.562Z,98987.66
2023-10-26T01:01:18.081Z,98980.75
2023-10-26T01:03:47.622Z,98979.13
2023-10-26T01:06:14.544Z,98975.84
2023-10-26T01:08:41.832Z,98973.81
2023-10-26T01:11:09.017Z,98971.97
2023-10-26T01:13:36.065Z,98962.63
2023-10-26T01:16:05.992Z,98963.44
2023-10-26T01:18:33.177Z,98954.94
2023-10-26T01:21:00.298Z,98957.34
2023-10-26T01:23:27.299Z,98958.16
2023-10-26T01:25:56.684Z,98955.53
2023-10-26T01:28:24.933Z,98953.13
2023-10-26T01:30:52.934Z,98946.56
2023-10-26T01:33:21.051Z,98943.13
2023-10-26T01:35:48.682Z,98946.38
2023-10-26T01:38:15.789Z,98949.22
2023-10-26T01:40:42.977Z,98939.91
2023-10-26T01:43:10.089Z,98944.78
2023-10-26T01:45:36.988Z,98938.69
2023-10-26T01:48:04.724Z,98923.66
2023-10-26T01:50:32.530Z,98931.00
2023-10-26T01:52:59.628Z,98928.94
2023-10-26T01:55:26.695Z,98919.44
2023-10-26T01:57:54.202Z,98931.59
2023-10-26T02:00:21.197Z,98926.91
2023-10-26T02:02:50.640Z,98917.16
2023-10-26T02:05:20.741Z,98917.16
2023-10-26T02:07:47.727Z,98919.13
2023-10-26T02:10:16.081Z,98902.25
2023-10-26T02:12:43.052Z,98904.91
2023-10-26T02:15:11.068Z,98891.91
2023-10-26T02:17:38.110Z,98888.22
2023-10-26T02:20:05.570Z,98882.94
2023-10-26T02:22:32.543Z,98879.94
2023-10-26T02:24:59.454Z,98879.13
2023-10-26T02:27:26.466Z,98869.59
2023-10-26T02:29:53.374Z,98859.84
2023-10-26T02:32:20.389Z,98855.56
2023-10-26T02:34:47.612Z,98850.50
2023-10-26T02:37:14.835Z,98854.75
2023-10-26T02:39:41.863Z,98845.00
2023-10-26T02:42:10.529Z,98857.03
2023-10-26T02:44:37.854Z,98854.63
2023-10-26T02:47:05.054Z,98854.63
2023-10-26T02:49:35.286Z,98847.72
2023-10-26T02:52:02.168Z,98837.59
2023-10-26T02:54:29.625Z,98848.59
2023-10-26T02:56:56.770Z,98848.38
2023-10-26T02:59:23.770Z,98849.41
2023-10-26T03:01:50.692Z,98843.75
2023-10-26T03:04:17.817Z,98832.59
2023-10-26T03:06:44.836Z,98838.53
2023-10-26T03:09:11.915Z,98832.81
2023-10-26T03:11:38.878Z,98829.16
2023-10-26T03:14:05.821Z,98820.63
2023-10-26T03:16:36.705Z,98818.22
2023-10-26T03:19:05.082Z,98822.25
2023-10-26T03:21:32.558Z,98810.69
2023-10-26T03:23:59.606Z,98814.69
2023-10-26T03:26:26.569Z,98814.25
2023-10-26T03:28:53.824Z,98809.78
2023-10-26T03:31:21.235Z,98814.25
2023-10-26T03:33:48.271Z,98814.84
2023-10-26T03:36:18.891Z,98805.09
2023-10-26T03:38:46.436Z,98817.69
2023-10-26T03:41:14.283Z,98816.09
2023-10-26T03:43:41.310Z,98801.03
2023-10-26T03:46:08.196Z,98799.66
2023-10-26T03:48:37.009Z,98794.81
2023-10-26T03:51:04.655Z,98796.41
2023-10-26T03:53:32.024Z,98787.94
2023-10-26T03:55:59.628Z,98788.75
2023-10-26T03:58:27.065Z,98781.38
2023-10-26T04:00:54.072Z,98784.63
2023-10-26T04:03:21.094Z,98785.44
2023-10-26T04:05:48.188Z,98790.25
2023-10-26T04:08:15.468Z,98790.25
2023-10-26T04:10:45.455Z,98793.72
2023-10-26T04:13:12.402Z,98790.72
2023-10-26T04:15:39.407Z,98785.44
2023-10-26T04:18:09.731Z,98783.00
2023-10-26T04:20:36.683Z,98787.69
2023-10-26T04:23:05.259Z,98789.75
2023-10-26T04:25:50.704Z,98784.13
2023-10-26T04:28:19.733Z,98776.19
2023-10-26T04:30:49.775Z,98782.25
2023-10-26T04:33:17.553Z,98780.66
2023-10-26T04:35:45.958Z,98788.81
2023-10-26T04:38:12.807Z,98799.72
2023-10-26T04:40:41.578Z,98788.94
2023-10-26T04:43:10.396Z,98791.59
2023-10-26T04:45:37.857Z,98785.50
2023-10-26T04:48:05.130Z,98782.84
2023-10-26T04:50:32.633Z,98767.81
2023-10-26T04:53:03.912Z,98767.00
2023-10-26T04:55:36.688Z,98760.72
2023-10-26T04:58:04.731Z,98758.88
2023-10-26T05:00:32.154Z,98746.09
2023-10-26T05:03:07.015Z,98745.06
2023-10-26T05:05:33.970Z,98748.88
2023-10-26T05:08:01.057Z,98744.41
2023-10-26T05:10:29.067Z,98748.88
2023-10-26T05:12:56.014Z,98739.13
2023-10-26T05:15:23.111Z,98739.94
2023-10-26T05:17:50.198Z,98725.69
2023-10-26T05:20:18.806Z,98726.72
2023-10-26T05:22:45.827Z,98725.69
2023-10-26T05:25:15.044Z,98722.03
2023-10-26T05:27:42.056Z,98727.69
2023-10-26T05:30:09.490Z,98719.28
2023-10-26T05:32:36.540Z,98719.53
2023-10-26T05:35:03.679Z,98715.28
2023-10-26T05:37:30.679Z,98705.31
2023-10-26T05:39:57.558Z,98704.03
2023-10-26T05:42:24.498Z,98709.09
2023-10-26T05:44:51.413Z,98705.44
2023-10-26T05:47:21.623Z,98700.94
2023-10-26T05:49:49.307Z,98699.09
2023-10-26T05:52:17.010Z,98701.53
2023-10-26T05:54:44.232Z,98698.91
2023-10-26T05:57:11.311Z,98696.25
2023-10-26T05:59:38.265Z,98691.19
2023-10-26T06:02:05.470Z,98688.53
2023-10-26T06:04:33.102Z,98679.25
2023-10-26T06:07:00.925Z,98688.78
2023-10-26T06:09:27.915Z,98679.25
2023-10-26T06:11:54.875Z,98679.25
2023-10-26T06:14:21.857Z,98675.19
2023-10-26T06:16:48.920Z,98678.44
2023-10-26T06:19:15.895Z,98678.44
2023-10-26T06:21:42.944Z,98674.38
2023-10-26T06:24:10.178Z,98669.09
2023-10-26T06:26:37.191Z,98671.53
2023-10-26T06:29:04.750Z,98672.69
2023-10-26T06:31:31.747Z,98662.50
2023-10-26T06:34:01.416Z,98675.72
2023-10-26T06:36:28.489Z,98663.75
2023-10-26T06:38:57.973Z,98668.00
2023-10-26T06:41:25.102Z,98659.25
2023-10-26T06:43:53.105Z,98659.06
2023-10-26T06:46:20.874Z,98658.59
2023-10-26T06:48:47.789Z,98663.31
2023-10-26T06:51:14.938Z,98656.16
2023-10-26T06:53:42.142Z,98664.69
2023-10-26T06:56:14.977Z,98660.41
2023-10-26T06:58:43.821Z,98661.81
2023-10-26T07:01:19.501Z,98661.56
2023-10-26T07:03:48.299Z,98667.66
2023-10-26T07:06:15.514Z,98677.69
2023-10-26T07:08:42.385Z,98676.66
2023-10-26T07:11:09.393Z,98680.06
2023-10-26T07:13:36.376Z,98666.09
2023-10-26T07:16:04.938Z,98660.56
2023-10-26T07:18:32.973Z,98666.66
2023-10-26T07:20:59.999Z,98666.09
2023-10-26T07:23:27.411Z,98663.44
2023-10-26T07:25:54.386Z,98669.06
2023-10-26T07:28:21.449Z,98660.56
2023-10-26T07:30:52.611Z,98668.25
2023-10-26T07:33:20.780Z,98672.53
2023-10-26T07:36:00.304Z,98679.19
2023-10-26T07:38:36.838Z,98672.06
2023-10-26T07:43:53.351Z,98662.28
2023-10-26T07:46:21.590Z,98659.44
2023-10-26T07:48:49.038Z,98661.06
2023-10-26T07:51:16.201Z,98658.41
2023-10-26T07:53:43.162Z,98660.81
2023-10-26T07:56:10.137Z,98663.34
2023-10-26T07:58:37.324Z,98662.47
2023-10-26T08:01:10.920Z,98668.31
2023-10-26T08:03:38.036Z,98660.16
2023-10-26T08:06:06.615Z,98668.44
2023-10-26T08:08:33.833Z,98666.97
2023-10-26T08:11:11.977Z,98664.06
2023-10-26T08:13:39.093Z,98663.28
2023-10-26T08:16:40.526Z,98668.00
2023-10-26T08:18:54.004Z,98673.50
2023-10-26T08:21:21.578Z,98670.84
2023-10-26T08:23:48.573Z,98672.47
2023-10-26T08:26:16.497Z,98671.31
2023-10-26T08:28:43.521Z,98675.34
2023-10-26T08:31:10.523Z,98679.00
2023-10-26T08:33:38.352Z,98682.94
2023-10-26T08:36:05.921Z,98676.34
2023-10-26T08:38:34.252Z,98675.94
2023-10-26T08:41:01.463Z,98673.03
2023-10-26T08:43:30.115Z,98676.84
2023-10-26T08:45:59.964Z,98682.97
2023-10-26T08:48:29.748Z,98689.41
2023-10-26T08:50:57.047Z,98686.75
2023-10-26T08:53:24.148Z,98686.38
2023-10-26T08:55:55.690Z,98691.66
2023-10-26T08:58:23.093Z,98692.72
2023-10-26T09:00:52.873Z,98699.97
2023-10-26T09:03:20.649Z,98692.97
2023-10-26T09:05:55.491Z,98693.78
2023-10-26T09:08:28.917Z,98690.44
2023-10-26T09:10:56.330Z,98688.03
2023-10-26T09:13:29.391Z,98690.66
2023-10-26T09:15:59.795Z,98695.28
2023-10-26T09:18:30.331Z,98696.06
2023-10-26T09:21:10.307Z,98698.72
2023-10-26T09:23:41.689Z,98682.84
2023-10-26T09:26:10.201Z,98690.31
2023-10-26T09:28:57.399Z,98683.19
2023-10-26T09:31:25.322Z,98681.69
2023-10-26T09:33:52.930Z,98695.28
2023-10-26T09:36:22.010Z,98701.72
2023-10-26T09:38:49.398Z,98693.31
2023-10-26T09:41:18.042Z,98703.78
2023-10-26T09:43:45.131Z,98718.44
2023-10-26T09:46:13.021Z,98708.28
2023-10-26T09:48:42.478Z,98706.09
2023-10-26T09:51:12.049Z,98724.56
2023-10-26T09:53:42.487Z,98719.88
2023-10-26T09:56:18.478Z,98723.81
2023-10-26T09:58:46.178Z,98728.31
2023-10-26T10:01:35.848Z,98734.88
2023-10-26T10:04:03.900Z,98729.56
2023-10-26T10:06:52.749Z,98737.38
2023-10-26T10:09:24.696Z,98738.34
2023-10-26T10:12:10.308Z,98735.59
2023-10-26T10:14:49.682Z,98734.69
2023-10-26T10:17:17.763Z,98731.78
2023-10-26T10:19:47.729Z,98729.63
2023-10-26T10:22:40.645Z,98723.38
2023-10-26T10:25:12.036Z,98724.78
2023-10-26T10:27:40.124Z,98730.41
2023-10-26T10:30:11.839Z,98729.38
2023-10-26T10:32:48.772Z,98737.63
2023-10-26T10:35:35.951Z,98736.63
2023-10-26T10:38:15.277Z,98735.59
2023-10-26T10:41:02.958Z,98746.41
2023-10-26T10:43:34.424Z,98741.34
2023-10-26T10:46:16.861Z,98738.72
2023-10-26T10:49:08.928Z,98736.28
2023-10-26T10:51:43.629Z,98730.06
2023-10-26T10:54:24.207Z,98727.84
2023-10-26T10:56:57.606Z,98727.03
2023-10-26T10:59:27.360Z,98728.28
2023-10-26T11:02:10.310Z,98736.09
2023-10-26T11:04:59.614Z,98727.66
2023-10-26T11:07:32.886Z,98726.63
2023-10-26T11:10:01.867Z,98730.66
2023-10-26T11:12:29.021Z,98723.88
2023-10-26T11:14:57.766Z,98723.97
2023-10-26T11:17:26.108Z,98715.31
2023-10-26T11:19:54.783Z,98720.00
2023-10-26T11:22:23.668Z,98722.53
2023-10-26T11:24:50.986Z,98712.47
2023-10-26T11:27:25.375Z,98712.66
2023-10-26T11:30:05.441Z,98712.97
2023-10-26T11:32:32.460Z,98719.44
2023-10-26T11:35:10.693Z,98720.25
2023-10-26T11:37:42.274Z,98716.78
2023-10-26T11:40:11.292Z,98716.44
2023-10-26T11:42:52.926Z,98710.41
2023-10-26T11:45:22.509Z,98711.22
2023-10-26T11:48:00.327Z,98704.53
2023-10-26T11:50:32.475Z,98703.78
2023-10-26T11:53:09.297Z,98704.34
2023-10-26T11:55:36.306Z,98703.78
2023-10-26T11:58:04.391Z,98707.72
2023-10-26T12:00:32.223Z,98700.25
2023-10-26T12:03:04.512Z,98690.44
2023-10-26T12:05:31.574Z,98693.09
2023-10-26T12:07:58.451Z,98687.06
2023-10-26T12:10:25.806Z,98675.97
2023-10-26T12:12:54.949Z,98668.91
2023-10-26T12:15:22.664Z,98673.25
2023-10-26T12:17:50.271Z,98669.28
2023-10-26T12:20:17.949Z,98672.84
2023-10-26T12:22:45.361Z,98667.59
2023-10-26T12:25:12.427Z,98662.13
2023-10-26T12:28:25.543Z,98671.94
2023-10-26T12:30:27.406Z,98665.84
2023-10-26T12:33:08.993Z,98668.50
2023-10-26T12:35:35.889Z,98668.50
2023-10-26T12:38:02.799Z,98670.34
2023-10-26T12:40:29.774Z,98672.53
2023-10-26T12:43:07.126Z,98668.97
2023-10-26T12:45:34.016Z,98668.34
2023-10-26T12:48:01.244Z,98675.25
2023-10-26T12:50:28.462Z,98662.47
2023-10-26T12:52:56.309Z,98656.91
2023-10-26T12:55:25.255Z,98664.34
2023-10-26T12:57:53.268Z,98656.09
2023-10-26T13:00:21.018Z,98648.16
2023-10-26T13:02:48.144Z,98638.69
2023-10-26T13:05:15.108Z,98643.72
2023-10-26T13:07:42.015Z,98641.06
2023-10-26T13:10:09.404Z,98651.22
2023-10-26T13:12:36.542Z,98652.56
2023-10-26T13:15:06.230Z,98648.63
2023-10-26T13:17:34.590Z,98646.78
2023-10-26T13:20:01.887Z,98637.28
2023-10-26T13:22:28.837Z,98636.06
2023-10-26T13:24:55.789Z,98632.66
2023-10-26T13:27:22.880Z,98635.38
2023-10-26T13:29:50.577Z,98630.41
2023-10-26T13:32:17.678Z,98629.34
2023-10-26T13:34:44.979Z,98614.94
2023-10-26T13:37:12.018Z,98616.56
2023-10-26T13:39:38.942Z,98628.00
2023-10-26T13:42:05.943Z,98614.94
2023-10-26T13:44:32.941Z,98608.53
2023-10-26T13:46:59.900Z,98612.00
2023-10-26T13:49:27.792Z,98598.16
2023-10-26T13:51:54.806Z,98584.88
2023-10-26T13:54:22.694Z,98583.59
2023-10-26T13:56:49.668Z,98577.47
2023-10-26T13:59:16.656Z,98572.97
2023-10-26T14:01:43.662Z,98569.53
2023-10-26T14:04:10.856Z,98578.28
2023-10-26T14:06:37.989Z,98572.97
2023-10-26T14:09:05.180Z,98574.59
2023-10-26T14:11:32.969Z,98564.50
2023-10-26T14:14:00.169Z,98567.72
2023-10-26T14:16:29.684Z,98568.59
2023-10-26T14:18:58.306Z,98570.53
2023-10-26T14:21:25.388Z,98574.59
2023-10-26T14:23:52.344Z,98574.94
2023-10-26T14:26:19.506Z,98578.13
2023-10-26T14:28:48.955Z,98577.88
2023-10-26T14:31:18.705Z,98578.13
2023-10-26T14:33:45.789Z,98579.50
2023-10-26T14:36:12.659Z,98580.53
2023-10-26T14:38:39.511Z,98582.16
2023-10-26T14:41:06.388Z,98582.44
2023-10-26T14:43:33.471Z,98583.50
2023-10-26T14:46:00.393Z,98581.34
2023-10-26T14:48:27.480Z,98587.69
2023-10-26T14:51:00.753Z,98587.94
2023-10-26T14:53:27.912Z,98589.50
2023-10-26T14:55:54.934Z,98590.53
2023-10-26T14:58:23.155Z,98591.84
2023-10-26T15:00:51.663Z,98592.09
2023-10-26T15:03:18.655Z,98594.75
2023-10-26T15:05:46.226Z,98596.06
2023-10-26T15:08:13.367Z,98591.19
2023-10-26T15:10:46.576Z,98587.47
2023-10-26T15:13:13.643Z,98579.75
2023-10-26T15:15:40.818Z,98579.22
2023-10-26T15:18:07.767Z,98578.41
2023-10-26T15:20:38.239Z,98573.34
2023-10-26T15:23:05.468Z,98576.50
2023-10-26T15:25:35.958Z,98576.97
2023-10-26T15:28:02.960Z,98574.59
2023-10-26T15:30:29.991Z,98576.09
2023-10-26T15:32:58.891Z,98571.81
2023-10-26T15:35:25.819Z,98574.13
2023-10-26T15:37:52.729Z,98574.41
2023-10-26T15:40:20.343Z,98577.84
2023-10-26T15:42:47.517Z,98578.91
2023-10-26T15:45:14.708Z,98574.94
2023-10-26T15:47:41.695Z,98582.09
2023-10-26T15:50:09.966Z,98584.75
2023-10-26T15:52:36.991Z,98581.28
2023-10-26T15:55:04.393Z,98574.06
2023-10-26T15:57:34.232Z,98583.34
2023-10-26T16:00:01.309Z,98584.59
2023-10-26T16:02:28.704Z,98579.31
2023-10-26T16:04:55.713Z,98574.31
2023-10-26T16:07:22.664Z,98577.78
2023-10-26T16:09:49.532Z,98580.38
2023-10-26T16:12:17.240Z,98588.56
2023-10-26T16:14:44.677Z,98589.31
2023-10-26T16:17:11.803Z,98592.19
2023-10-26T16:19:38.684Z,98597.50
2023-10-26T16:22:05.680Z,98589.53
2023-10-26T16:24:32.649Z,98591.63
2023-10-26T16:26:59.725Z,98588.66
2023-10-26T16:29:26.576Z,98585.47
2023-10-26T16:31:53.741Z,98589.41
2023-10-26T16:34:20.691Z,98589.31
2023-10-26T16:36:47.828Z,98582.91
2023-10-26T16:39:14.716Z,98580.72
2023-10-26T16:41:41.604Z,98588.38
2023-10-26T16:44:08.650Z,98589.41
2023-10-26T16:46:35.590Z,98589.09
2023-10-26T16:49:02.584Z,98587.16
2023-10-26T16:51:29.525Z,98589.75
2023-10-26T16:53:56.411Z,98585.72
2023-10-26T16:56:25.342Z,98593.94
2023-10-26T16:58:52.287Z,98596.81
2023-10-26T17:01:19.357Z,98599.94
2023-10-26T17:03:46.972Z,98596.97
2023-10-26T17:06:13.939Z,98596.66
2023-10-26T17:08:40.937Z,98598.97
2023-10-26T17:11:11.381Z,98591.47
2023-10-26T17:13:38.241Z,98590.66
2023-10-26T17:16:05.454Z,98591.94
2023-10-26T17:18:32.392Z,98591.38
2023-10-26T17:20:59.300Z,98596.13
2023-10-26T17:23:26.370Z,98602.16
2023-10-26T17:25:53.308Z,98593.84
2023-10-26T17:28:20.225Z,98596.75
2023-10-26T17:30:47.318Z,98599.31
2023-10-26T17:33:17.039Z,98587.34
2023-10-26T17:35:49.288Z,98587.56
2023-10-26T17:38:16.504Z,98580.34
2023-10-26T17:40:46.007Z,98582.44
2023-10-26T17:43:14.022Z,98579.22
2023-10-26T17:45:41.198Z,98584.50
2023-10-26T17:48:08.272Z,98583.38
2023-10-26T17:50:43.461Z,98581.53
2023-10-26T17:53:10.417Z,98588.69
2023-10-26T17:55:37.735Z,98591.56
2023-10-26T17:58:04.792Z,98586.50
2023-10-26T18:00:31.823Z,98590.44
2023-10-26T18:02:58.850Z,98591.47
2023-10-26T18:05:25.854Z,98587.22
2023-10-26T18:07:54.192Z,98589.03
2023-10-26T18:10:21.682Z,98585.03
2023-10-26T18:12:49.689Z,98587.13
2023-10-26T18:15:16.852Z,98579.97
2023-10-26T18:17:43.997Z,98586.31
2023-10-26T18:20:11.461Z,98582.31
2023-10-26T18:22:38.460Z,98585.66
2023-10-26T18:25:05.967Z,98586.91
2023-10-26T18:27:32.944Z,98585.56
2023-10-26T18:30:00.142Z,98583.16
2023-10-26T18:32:27.381Z,98582.34
2023-10-26T18:34:54.400Z,98584.97
2023-10-26T18:37:22.410Z,98578.06
2023-10-26T18:39:50.029Z,98580.97
2023-10-26T18:42:17.012Z,98578.78
2023-10-26T18:44:44.082Z,98583.75
2023-10-26T18:47:11.894Z,98582.41
2023-10-26T18:49:39.253Z,98577.88
2023-10-26T18:52:06.442Z,98580.53
2023-10-26T18:54:33.357Z,98584.47
2023-10-26T18:57:00.689Z,98590.25
2023-10-26T18:59:27.584Z,98579.66
2023-10-26T19:01:54.515Z,98583.56
2023-10-26T19:04:21.582Z,98584.59
2023-10-26T19:06:48.580Z,98587.22
2023-10-26T19:09:15.541Z,98590.91
2023-10-26T19:11:43.616Z,98584.50
2023-10-26T19:14:10.507Z,98587.13
2023-10-26T19:16:37.693Z,98582.88
2023-10-26T19:19:04.833Z,98583.34
2023-10-26T19:21:31.898Z,98587.38
2023-10-26T19:23:58.736Z,98581.75
2023-10-26T19:26:25.594Z,98580.13
2023-10-26T19:28:52.511Z,98570.25
2023-10-26T19:31:19.805Z,98564.13
2023-10-26T19:33:48.299Z,98570.25
2023-10-26T19:36:15.393Z,98566.78
2023-10-26T19:38:42.377Z,98570.94
2023-10-26T19:41:13.228Z,98569.00
2023-10-26T19:43:40.141Z,98565.56
2023-10-26T19:46:07.093Z,98567.16
2023-10-26T19:48:34.043Z,98568.19
2023-10-26T19:51:00.990Z,98566.22
2023-10-26T19:53:34.605Z,98563.81
2023-10-26T19:56:01.776Z,98573.59
2023-10-26T19:58:29.062Z,98579.13
2023-10-26T20:00:56.079Z,98574.16
2023-10-26T20:03:23.244Z,98570.72
2023-10-26T20:05:50.287Z,98577.28
2023-10-26T20:08:17.278Z,98579.13
2023-10-26T20:10:45.292Z,98578.09
2023-10-26T20:13:15.608Z,98580.16
2023-10-26T20:15:42.540Z,98573.50
2023-10-26T20:18:12.067Z,98573.72
2023-10-26T20:23:14.439Z,98578.19
2023-10-26T20:25:42.399Z,98573.13
2023-10-26T20:28:11.252Z,98575.78
2023-10-26T20:30:38.875Z,98580.53
2023-10-26T20:33:09.932Z,98570.38
2023-10-26T20:35:36.814Z,98574.31
2023-10-26T20:38:04.612Z,98579.81
2023-10-26T20:40:31.531Z,98573.63
2023-10-26T20:43:06.251Z,98577.28
2023-10-26T20:45:33.272Z,98580.19
2023-10-26T20:48:00.664Z,98585.91
2023-10-26T20:50:32.125Z,98577.44
2023-10-26T20:53:08.575Z,98574.19
2023-10-26T20:55:35.473Z,98581.91
2023-10-26T20:58:02.391Z,98584.78
2023-10-26T21:00:29.385Z,98586.03
2023-10-26T21:02:56.381Z,98587.09
2023-10-26T21:05:23.429Z,98588.56
2023-10-26T21:07:50.363Z,98583.50
2023-10-26T21:10:17.522Z,98579.59
2023-10-26T21:12:44.680Z,98582.72
2023-10-26T21:15:12.041Z,98577.97
2023-10-26T21:17:39.018Z,98586.97
2023-10-26T21:20:09.268Z,98578.22
2023-10-26T21:22:36.922Z,98583.97
2023-10-26T21:25:07.627Z,98576.72
2023-10-26T21:27:36.302Z,98577.19
2023-10-26T21:30:04.420Z,98578.22
2023-10-26T21:32:32.052Z,98576.59
2023-10-26T21:34:59.571Z,98573.16
2023-10-26T21:37:26.610Z,98576.47
2023-10-26T21:39:53.585Z,98576.94
2023-10-26T21:42:21.363Z,98586.94
2023-10-26T21:44:49.028Z,98579.00
2023-10-26T21:47:15.955Z,98576.84
2023-10-26T21:49:43.024Z,98580.03
2023-10-26T21:52:10.195Z,98574.31
2023-10-26T21:54:37.068Z,98571.44
2023-10-26T21:57:04.209Z,98581.56
2023-10-26T21:59:31.158Z,98574.31
2023-10-26T22:01:58.704Z,98573.16
2023-10-26T22:04:25.742Z,98584.63
2023-10-26T22:06:52.857Z,98580.84
2023-10-26T22:09:22.353Z,98585.31
2023-10-26T22:11:49.228Z,98587.59
2023-10-26T22:14:16.318Z,98580.34
2023-10-26T22:16:44.406Z,98587.72
2023-10-26T22:19:11.593Z,98592.19
2023-10-26T22:21:38.658Z,98600.13
2023-10-26T22:24:06.266Z,98589.78
2023-10-26T22:26:33.205Z,98597.69
2023-10-26T22:29:00.351Z,98601.38
2023-10-26T22:31:27.757Z,98600.56
2023-10-26T22:33:54.710Z,98595.53
2023-10-26T22:36:22.244Z,98592.06
2023-10-26T22:38:49.130Z,98593.09
2023-10-26T22:41:16.579Z,98597.34
2023-10-26T22:43:43.721Z,98601.81
2023-10-26T22:46:10.588Z,98601.59
2023-10-26T22:48:37.544Z,98593.09
2023-10-26T22:51:04.701Z,98600.09
2023-10-26T22:53:31.730Z,98594.47
2023-10-26T22:56:01.047Z,98593.06
2023-10-26T22:58:28.001Z,98589.03
2023-10-26T23:00:55.028Z,98588.44
2023-10-26T23:03:21.929Z,98580.78
2023-10-26T23:05:48.802Z,98577.53
2023-10-26T23:08:15.707Z,98579.16
2023-10-26T23:10:43.012Z,98587.63
2023-10-26T23:13:10.796Z,98591.91
2023-10-26T23:15:37.794Z,98586.63
2023-10-26T23:18:04.884Z,98586.41
2023-10-26T23:20:32.964Z,98589.25
2023-10-26T23:23:04.665Z,98587.09
2023-10-26T23:25:31.621Z,98583.84
2023-10-26T23:28:01.086Z,98576.94
2023-10-26T23:30:27.906Z,98583.50
2023-10-26T23:32:55.597Z,98584.16
2023-10-26T23:35:22.633Z,98588.28
2023-10-26T23:37:49.495Z,98583.22
2023-10-26T23:40:16.938Z,98582.19
2023-10-26T23:42:43.866Z,98581.94
2023-10-26T23:45:11.054Z,98587.81
2023-10-26T23:47:37.982Z,98589.84
2023-10-26T23:50:05.253Z,98585.16
2023-10-26T23:52:35.636Z,98588.63
2023-10-26T23:55:02.857Z,98596.31
2023-10-26T23:57:29.704Z,98597.34
2023-10-26T23:59:56.603Z,98588.63
